createdAt,value
2022-11-05T00:00:19.053Z,11.20
2022-11-05T00:03:04.374Z,12.90
2022-11-05T00:05:50.076Z,12.20
2022-11-05T00:08:35.341Z,12.35
2022-11-05T00:11:01.940Z,10.80
2022-11-05T00:13:46.977Z,10.80
2022-11-05T00:16:31.844Z,12.60
2022-11-05T00:19:07.432Z,7.45
2022-11-05T00:21:53.300Z,17.52
2022-11-05T00:24:38.598Z,12.50
2022-11-05T00:27:05.607Z,9.68
2022-11-05T00:29:32.258Z,8.40
2022-11-05T00:31:58.825Z,13.93
2022-11-05T00:34:25.292Z,9.40
2022-11-05T00:36:51.815Z,10.30
2022-11-05T00:39:18.302Z,14.90
2022-11-05T00:42:04.762Z,16.65
2022-11-05T00:44:50.220Z,10.55
2022-11-05T00:47:35.451Z,14.15
2022-11-05T00:50:01.962Z,12.97
2022-11-05T00:52:46.869Z,18.60
2022-11-05T00:55:13.380Z,13.88
2022-11-05T00:57:39.867Z,10.90
2022-11-05T01:00:06.875Z,8.43
2022-11-05T01:02:33.561Z,13.30
2022-11-05T01:05:00.188Z,8.55
2022-11-05T01:07:26.693Z,14.80
2022-11-05T01:09:53.197Z,9.25
2022-11-05T01:12:19.653Z,12.18
2022-11-05T01:14:46.133Z,11.63
2022-11-05T01:17:12.634Z,15.27
2022-11-05T01:19:39.483Z,14.82
2022-11-05T01:22:06.010Z,14.25
2022-11-05T01:24:32.571Z,12.48
2022-11-05T01:26:59.135Z,11.83
2022-11-05T01:29:25.678Z,10.30
2022-11-05T01:31:52.219Z,14.60
2022-11-05T01:34:18.734Z,20.80
2022-11-05T01:36:45.240Z,9.68
2022-11-05T01:39:11.751Z,11.40
2022-11-05T01:41:38.322Z,11.85
2022-11-05T01:44:04.986Z,12.52
2022-11-05T01:46:36.847Z,14.52
2022-11-05T01:49:12.635Z,17.08
2022-11-05T01:51:40.112Z,12.67
2022-11-05T01:54:11.760Z,14.82
2022-11-05T01:56:45.107Z,14.68
2022-11-05T01:59:21.415Z,14.85
2022-11-05T02:01:48.141Z,16.05
2022-11-05T02:04:24.610Z,12.93
2022-11-05T02:06:51.180Z,10.73
2022-11-05T02:09:27.722Z,12.13
2022-11-05T02:11:54.259Z,14.80
2022-11-05T02:14:20.750Z,15.55
2022-11-05T02:16:57.990Z,14.43
2022-11-05T02:19:55.489Z,17.88
2022-11-05T02:22:44.039Z,14.88
2022-11-05T02:25:37.386Z,13.43
2022-11-05T02:28:22.000Z,21.35
2022-11-05T02:30:56.657Z,15.17
2022-11-05T02:33:47.880Z,16.15
2022-11-05T02:36:39.888Z,13.18
2022-11-05T02:39:24.950Z,11.40
2022-11-05T02:42:05.134Z,11.52
2022-11-05T02:44:34.609Z,12.47
2022-11-05T02:47:24.141Z,14.55
2022-11-05T02:50:05.930Z,17.60
2022-11-05T02:52:40.721Z,16.25
2022-11-05T02:55:22.986Z,21.35
2022-11-05T02:57:49.642Z,20.73
2022-11-05T03:00:37.894Z,14.38
2022-11-05T03:03:08.840Z,16.80
2022-11-05T03:05:55.539Z,24.70
2022-11-05T03:08:34.891Z,23.48
2022-11-05T03:11:12.771Z,16.50
2022-11-05T03:13:59.387Z,18.55
2022-11-05T03:16:40.368Z,22.33
2022-11-05T03:19:25.015Z,24.05
2022-11-05T03:21:57.899Z,18.20
2022-11-05T03:24:29.502Z,17.70
2022-11-05T03:27:00.758Z,24.35
2022-11-05T03:29:36.177Z,23.00
2022-11-05T03:32:05.082Z,24.65
2022-11-05T03:34:36.784Z,18.70
2022-11-05T03:37:05.285Z,22.73
2022-11-05T03:39:37.339Z,24.48
2022-11-05T03:42:07.352Z,18.02
2022-11-05T03:44:39.027Z,21.88
2022-11-05T03:47:19.360Z,28.50
2022-11-05T03:50:04.733Z,24.83
2022-11-05T03:52:38.091Z,24.00
2022-11-05T03:55:05.678Z,27.85
2022-11-05T03:57:37.211Z,32.95
2022-11-05T04:00:08.599Z,30.90
2022-11-05T04:02:35.248Z,31.07
2022-11-05T04:05:01.898Z,24.92
2022-11-05T04:07:47.096Z,29.27
2022-11-05T04:10:32.216Z,22.05
2022-11-05T04:13:17.493Z,29.40
2022-11-05T04:16:02.296Z,30.70
2022-11-05T04:18:28.791Z,31.48
2022-11-05T04:21:16.585Z,31.63
2022-11-05T04:24:01.629Z,25.73
2022-11-05T04:26:28.141Z,23.38
2022-11-05T04:29:13.043Z,28.33
2022-11-05T04:31:39.751Z,29.60
2022-11-05T04:34:06.304Z,28.98
2022-11-05T04:36:33.058Z,25.92
2022-11-05T04:38:59.616Z,27.83
2022-11-05T04:41:26.257Z,21.00
2022-11-05T04:43:52.768Z,25.10
2022-11-05T04:46:19.326Z,25.05
2022-11-05T04:48:45.920Z,24.17
2022-11-05T04:51:12.424Z,31.23
2022-11-05T04:53:38.960Z,25.03
2022-11-05T04:56:15.175Z,28.33
2022-11-05T04:58:42.877Z,24.75
2022-11-05T05:01:13.723Z,22.83
2022-11-05T05:03:40.371Z,21.55
2022-11-05T05:06:07.500Z,24.60
2022-11-05T05:08:34.167Z,29.98
2022-11-05T05:11:02.871Z,23.75
2022-11-05T05:13:29.372Z,22.00
2022-11-05T05:15:55.942Z,30.00
2022-11-05T05:18:22.420Z,32.30
2022-11-05T05:21:07.392Z,26.70
2022-11-05T05:23:33.887Z,22.80
2022-11-05T05:26:00.576Z,29.13
2022-11-05T05:28:28.112Z,21.88
2022-11-05T05:30:58.968Z,29.83
2022-11-05T05:33:25.900Z,33.50
2022-11-05T05:35:52.467Z,24.55
2022-11-05T05:38:19.195Z,28.25
2022-11-05T05:40:45.816Z,26.63
2022-11-05T05:43:12.576Z,25.40
2022-11-05T05:45:39.288Z,26.80
2022-11-05T05:48:06.006Z,23.98
2022-11-05T05:50:32.565Z,27.83
2022-11-05T05:52:59.038Z,30.40
2022-11-05T05:55:25.736Z,23.23
2022-11-05T05:57:52.226Z,21.23
2022-11-05T06:00:21.922Z,24.40
2022-11-05T06:02:48.540Z,25.77
2022-11-05T06:05:15.201Z,22.08
2022-11-05T06:07:41.695Z,29.70
2022-11-05T06:10:08.700Z,23.88
2022-11-05T06:12:35.217Z,21.13
2022-11-05T06:15:01.811Z,24.35
2022-11-05T06:17:28.363Z,16.48
2022-11-05T06:19:54.880Z,24.27
2022-11-05T06:22:21.422Z,18.95
2022-11-05T06:24:47.907Z,18.02
2022-11-05T06:27:14.382Z,21.80
2022-11-05T06:29:40.837Z,19.38
2022-11-05T06:32:07.328Z,22.83
2022-11-05T06:34:33.970Z,27.05
2022-11-05T06:37:00.452Z,21.98
2022-11-05T06:39:26.943Z,22.35
2022-11-05T06:44:40.000Z,18.60
2022-11-05T06:47:06.804Z,25.65
2022-11-05T06:49:33.316Z,22.38
2022-11-05T06:51:59.868Z,24.27
2022-11-05T06:54:26.420Z,23.00
2022-11-05T06:56:52.940Z,25.83
2022-11-05T06:59:19.473Z,22.50
2022-11-05T07:01:46.094Z,24.73
2022-11-05T07:04:12.780Z,23.63
2022-11-05T07:06:39.252Z,17.27
2022-11-05T07:09:05.743Z,21.50
2022-11-05T07:11:32.259Z,18.77
2022-11-05T07:13:58.960Z,24.92
2022-11-05T07:16:25.559Z,19.40
2022-11-05T07:18:52.860Z,24.23
2022-11-05T07:21:19.784Z,21.33
2022-11-05T07:23:46.290Z,23.05
2022-11-05T07:26:12.782Z,21.77
2022-11-05T07:28:39.283Z,22.85
2022-11-05T07:31:06.027Z,24.80
2022-11-05T07:33:36.548Z,24.57
2022-11-05T07:36:03.731Z,24.50
2022-11-05T07:38:30.292Z,21.25
2022-11-05T07:40:59.257Z,29.98
2022-11-05T07:43:25.845Z,21.05
2022-11-05T07:45:52.410Z,22.67
2022-11-05T07:48:18.989Z,23.73
2022-11-05T07:50:45.691Z,22.80
2022-11-05T07:53:14.438Z,23.67
2022-11-05T07:55:41.390Z,26.35
2022-11-05T07:58:07.976Z,25.47
2022-11-05T08:00:34.602Z,24.10
2022-11-05T08:03:08.544Z,24.48
2022-11-05T08:05:37.514Z,26.48
2022-11-05T08:08:05.050Z,24.38
2022-11-05T08:10:31.668Z,23.23
2022-11-05T08:12:59.648Z,22.00
2022-11-05T08:15:26.324Z,28.50
2022-11-05T08:18:16.959Z,26.17
2022-11-05T08:20:44.960Z,30.15
2022-11-05T08:23:11.908Z,24.70
2022-11-05T08:25:39.805Z,26.83
2022-11-05T08:28:10.197Z,32.40
2022-11-05T08:30:36.953Z,23.33
2022-11-05T08:33:12.783Z,26.13
2022-11-05T08:35:40.655Z,27.37
2022-11-05T08:38:10.045Z,30.40
2022-11-05T08:40:37.175Z,21.33
2022-11-05T08:43:06.700Z,22.17
2022-11-05T08:45:34.909Z,21.98
2022-11-05T08:48:15.416Z,23.87
2022-11-05T08:50:42.895Z,20.00
2022-11-05T08:53:10.607Z,22.23
2022-11-05T08:55:38.518Z,22.25
2022-11-05T08:58:07.598Z,18.20
2022-11-05T09:00:36.825Z,21.67
2022-11-05T09:03:05.368Z,20.05
2022-11-05T09:05:38.196Z,19.05
2022-11-05T09:08:10.448Z,25.40
2022-11-05T09:10:37.482Z,19.65
2022-11-05T09:13:05.035Z,21.97
2022-11-05T09:15:32.206Z,21.23
2022-11-05T09:17:59.294Z,19.83
2022-11-05T09:20:26.103Z,20.63
2022-11-05T09:22:53.014Z,22.38
2022-11-05T09:25:19.815Z,22.33
2022-11-05T09:27:46.425Z,30.50
2022-11-05T09:30:13.990Z,28.88
2022-11-05T09:32:40.921Z,31.23
2022-11-05T09:35:08.414Z,32.53
2022-11-05T09:37:36.241Z,30.27
2022-11-05T09:40:02.879Z,23.40
2022-11-05T09:42:35.414Z,23.25
2022-11-05T09:45:23.826Z,20.65
2022-11-05T09:47:57.504Z,21.20
2022-11-05T09:50:37.764Z,16.67
2022-11-05T09:53:05.160Z,13.32
2022-11-05T09:55:41.313Z,15.52
2022-11-05T09:58:23.182Z,17.40
2022-11-05T10:00:52.992Z,14.00
2022-11-05T10:03:24.891Z,13.93
2022-11-05T10:05:53.766Z,19.65
2022-11-05T10:08:22.748Z,12.73
2022-11-05T10:10:53.600Z,12.40
2022-11-05T10:13:37.976Z,11.85
2022-11-05T10:16:21.768Z,13.73
2022-11-05T10:18:54.046Z,14.43
2022-11-05T10:21:37.758Z,10.45
2022-11-05T10:24:30.267Z,14.48
2022-11-05T10:26:57.937Z,14.25
2022-11-05T10:29:33.122Z,18.77
2022-11-05T10:32:03.223Z,14.50
2022-11-05T10:34:34.266Z,13.55
2022-11-05T10:37:01.063Z,13.02
2022-11-05T10:39:29.046Z,13.52
2022-11-05T10:42:19.602Z,12.80
2022-11-05T10:45:22.995Z,15.10
2022-11-05T10:48:19.079Z,16.33
2022-11-05T10:50:45.864Z,9.10
2022-11-05T10:53:19.863Z,11.32
2022-11-05T10:55:49.354Z,15.03
2022-11-05T10:58:15.779Z,24.30
2022-11-05T11:00:52.258Z,8.40
2022-11-05T11:03:43.614Z,11.23
2022-11-05T11:06:28.304Z,11.07
2022-11-05T11:09:03.682Z,10.03
2022-11-05T11:11:37.679Z,15.70
2022-11-05T11:14:11.716Z,12.23
2022-11-05T11:16:50.432Z,13.32
2022-11-05T11:19:34.350Z,16.55
2022-11-05T11:22:03.594Z,10.53
2022-11-05T11:24:33.561Z,14.25
2022-11-05T11:27:05.748Z,17.13
2022-11-05T11:29:36.198Z,12.27
2022-11-05T11:32:02.882Z,13.20
2022-11-05T11:34:39.236Z,15.17
2022-11-05T11:37:12.938Z,10.00
2022-11-05T11:39:50.660Z,11.95
2022-11-05T11:42:49.103Z,11.45
2022-11-05T11:45:36.498Z,12.40
2022-11-05T11:48:06.496Z,11.33
2022-11-05T11:50:39.030Z,17.08
2022-11-05T11:53:20.600Z,10.38
2022-11-05T11:56:05.463Z,13.82
2022-11-05T11:58:42.081Z,10.80
2022-11-05T12:01:20.844Z,11.60
2022-11-05T12:04:15.316Z,11.13
2022-11-05T12:06:50.490Z,7.57
2022-11-05T12:09:50.467Z,9.05
2022-11-05T12:12:21.112Z,11.43
2022-11-05T12:14:56.652Z,9.97
2022-11-05T12:17:26.577Z,8.85
2022-11-05T12:20:13.965Z,12.25
2022-11-05T12:22:46.447Z,7.55
2022-11-05T12:25:21.866Z,11.02
2022-11-05T12:27:57.258Z,7.43
2022-11-05T12:30:24.093Z,9.23
2022-11-05T12:33:02.838Z,10.35
2022-11-05T12:35:56.463Z,8.35
2022-11-05T12:38:29.997Z,9.00
2022-11-05T12:41:24.992Z,10.77
2022-11-05T12:44:10.131Z,11.02
2022-11-05T12:46:54.567Z,11.98
2022-11-05T12:49:30.902Z,14.75
2022-11-05T12:52:23.195Z,8.80
2022-11-05T12:55:08.500Z,13.27
2022-11-05T12:57:40.254Z,8.48
2022-11-05T13:00:20.401Z,6.68
2022-11-05T13:03:06.904Z,9.75
2022-11-05T13:05:44.461Z,15.98
2022-11-05T13:08:25.432Z,14.27
2022-11-05T13:10:53.954Z,8.30
2022-11-05T13:13:30.953Z,9.45
2022-11-05T13:16:05.038Z,10.20
2022-11-05T13:18:47.145Z,6.78
2022-11-05T13:21:15.776Z,7.60
2022-11-05T13:24:11.043Z,11.48
2022-11-05T13:26:51.081Z,8.13
2022-11-05T13:29:27.357Z,11.20
2022-11-05T13:32:02.165Z,10.20
2022-11-05T13:34:33.464Z,10.57
2022-11-05T13:37:24.062Z,11.68
2022-11-05T13:40:03.557Z,8.38
2022-11-05T13:43:01.161Z,11.32
2022-11-05T13:45:42.963Z,10.88
2022-11-05T13:48:31.284Z,10.30
2022-11-05T13:51:12.686Z,9.13
2022-11-05T13:53:49.853Z,13.80
2022-11-05T13:56:44.169Z,13.63
2022-11-05T13:59:22.507Z,10.05
2022-11-05T14:01:58.508Z,10.07
2022-11-05T14:04:31.316Z,7.50
2022-11-05T14:07:16.769Z,7.57
2022-11-05T14:09:44.580Z,10.23
2022-11-05T14:12:26.825Z,7.20
2022-11-05T14:15:00.498Z,7.03
2022-11-05T14:17:32.199Z,9.05
2022-11-05T14:20:04.756Z,9.23
2022-11-05T14:22:31.205Z,8.82
2022-11-05T14:24:59.359Z,8.52
2022-11-05T14:27:28.850Z,10.20
2022-11-05T14:29:55.930Z,11.48
2022-11-05T14:32:24.943Z,12.10
2022-11-05T14:35:15.604Z,15.40
2022-11-05T14:37:53.247Z,11.70
2022-11-05T14:40:42.789Z,9.50
2022-11-05T14:43:24.797Z,9.70
2022-11-05T14:46:01.339Z,9.77
2022-11-05T14:48:48.646Z,12.05
2022-11-05T14:51:33.459Z,12.90
2022-11-05T14:53:59.967Z,8.13
2022-11-05T14:56:26.549Z,9.85
2022-11-05T14:59:24.818Z,6.15
2022-11-05T15:01:56.404Z,9.68
2022-11-05T15:04:36.382Z,10.80
2022-11-05T15:07:03.026Z,18.07
2022-11-05T15:09:38.411Z,6.90
2022-11-05T15:12:16.532Z,10.48
2022-11-05T15:14:59.291Z,12.25
2022-11-05T15:17:45.901Z,10.43
2022-11-05T15:20:41.475Z,9.50
2022-11-05T15:23:13.527Z,8.10
2022-11-05T15:25:55.520Z,8.23
2022-11-05T15:28:27.221Z,9.65
2022-11-05T15:31:03.241Z,7.70
2022-11-05T15:33:30.670Z,9.13
2022-11-05T15:36:28.316Z,11.35
2022-11-05T15:39:27.883Z,11.30
2022-11-05T15:41:43.021Z,10.30
2022-11-05T15:44:28.971Z,10.85
2022-11-05T15:47:14.114Z,10.20
2022-11-05T15:49:43.491Z,8.85
2022-11-05T15:52:15.332Z,11.45
2022-11-05T15:54:42.951Z,14.57
2022-11-05T15:57:28.908Z,10.10
2022-11-05T15:59:55.444Z,7.97
2022-11-05T16:02:32.616Z,14.32
2022-11-05T16:05:01.593Z,17.23
2022-11-05T16:07:28.794Z,13.27
2022-11-05T16:09:58.324Z,11.43
2022-11-05T16:12:34.093Z,15.57
2022-11-05T16:15:04.684Z,14.95
2022-11-05T16:17:40.278Z,17.98
2022-11-05T16:20:32.050Z,10.20
2022-11-05T16:23:01.932Z,12.85
2022-11-05T16:25:31.103Z,14.63
2022-11-05T16:27:59.517Z,14.20
2022-11-05T16:30:26.625Z,17.42
2022-11-05T16:32:53.676Z,10.88
2022-11-05T16:35:25.017Z,10.60
2022-11-05T16:37:52.771Z,13.37
2022-11-05T16:40:24.566Z,12.73
2022-11-05T16:42:53.787Z,12.43
2022-11-05T16:45:23.700Z,9.95
2022-11-05T16:47:50.770Z,12.57
2022-11-05T16:50:27.447Z,10.60
2022-11-05T16:52:54.049Z,15.80
2022-11-05T16:55:20.749Z,13.95
2022-11-05T16:57:54.491Z,12.55
2022-11-05T17:00:22.096Z,12.45
2022-11-05T17:02:48.959Z,10.03
2022-11-05T17:05:25.262Z,12.50
2022-11-05T17:07:53.033Z,10.45
2022-11-05T17:10:21.449Z,10.23
2022-11-05T17:12:48.540Z,12.98
2022-11-05T17:15:18.989Z,9.03
2022-11-05T17:17:45.712Z,10.85
2022-11-05T17:20:21.408Z,12.07
2022-11-05T17:22:47.881Z,11.20
2022-11-05T17:25:14.397Z,12.32
2022-11-05T17:27:40.938Z,14.97
2022-11-05T17:30:09.308Z,13.35
2022-11-05T17:32:35.921Z,10.57
2022-11-05T17:35:02.415Z,9.18
2022-11-05T17:37:28.971Z,12.05
2022-11-05T17:39:55.769Z,11.40
2022-11-05T17:42:22.355Z,11.07
2022-11-05T17:44:48.838Z,13.38
2022-11-05T17:47:15.342Z,14.02
2022-11-05T17:49:41.909Z,12.57
2022-11-05T17:52:08.509Z,7.97
2022-11-05T17:54:35.058Z,10.57
2022-11-05T17:57:03.618Z,12.52
2022-11-05T17:59:30.625Z,12.45
2022-11-05T18:01:57.742Z,15.25
2022-11-05T18:04:24.450Z,12.57
2022-11-05T18:06:51.054Z,10.43
2022-11-05T18:09:17.818Z,18.55
2022-11-05T18:11:44.356Z,8.50
2022-11-05T18:14:11.325Z,13.48
2022-11-05T18:16:38.302Z,8.67
2022-11-05T18:19:05.230Z,10.95
2022-11-05T18:21:31.920Z,9.68
2022-11-05T18:23:58.465Z,24.95
2022-11-05T18:26:28.048Z,12.32
2022-11-05T18:28:54.558Z,13.33
2022-11-05T18:31:21.941Z,12.02
2022-11-05T18:33:50.033Z,13.15
2022-11-05T18:36:27.598Z,21.45
2022-11-05T18:38:54.417Z,10.20
2022-11-05T18:41:21.632Z,14.27
2022-11-05T18:43:48.174Z,10.63
2022-11-05T18:46:36.103Z,7.70
2022-11-05T18:49:01.595Z,9.75
2022-11-05T18:51:28.388Z,13.95
2022-11-05T18:53:55.448Z,20.20
2022-11-05T18:56:22.332Z,10.68
2022-11-05T18:58:49.732Z,15.27
2022-11-05T19:01:22.911Z,12.20
2022-11-05T19:03:51.307Z,12.00
2022-11-05T19:06:18.572Z,8.03
2022-11-05T19:08:45.177Z,17.55
2022-11-05T19:11:15.195Z,18.33
2022-11-05T19:13:42.264Z,9.15
2022-11-05T19:16:10.838Z,13.48
2022-11-05T19:18:37.854Z,15.03
2022-11-05T19:21:09.151Z,17.08
2022-11-05T19:23:39.029Z,14.18
2022-11-05T19:26:15.922Z,13.35
2022-11-05T19:28:43.013Z,11.18
2022-11-05T19:31:15.237Z,10.23
2022-11-05T19:33:43.314Z,9.57
2022-11-05T19:36:11.586Z,10.25
2022-11-05T19:38:38.298Z,10.75
2022-11-05T19:41:10.704Z,10.27
2022-11-05T19:43:38.834Z,11.57
2022-11-05T19:46:10.407Z,11.57
2022-11-05T19:48:37.705Z,11.85
2022-11-05T19:51:09.344Z,16.42
2022-11-05T19:53:39.554Z,11.25
2022-11-05T19:56:08.140Z,14.27
2022-11-05T19:58:34.633Z,13.52
2022-11-05T20:01:01.503Z,11.00
2022-11-05T20:03:28.444Z,15.07
2022-11-05T20:05:54.978Z,14.10
2022-11-05T20:08:21.511Z,7.67
2022-11-05T20:10:53.695Z,13.52
2022-11-05T20:13:20.204Z,12.27
2022-11-05T20:15:46.805Z,9.93
2022-11-05T20:18:13.945Z,11.52
2022-11-05T20:20:41.763Z,9.30
2022-11-05T20:23:08.309Z,17.05
2022-11-05T20:25:34.945Z,17.10
2022-11-05T20:28:01.784Z,14.00
2022-11-05T20:30:28.418Z,12.45
2022-11-05T20:32:55.718Z,12.13
2022-11-05T20:35:23.184Z,10.25
2022-11-05T20:37:53.753Z,12.18
2022-11-05T20:40:20.800Z,15.68
2022-11-05T20:42:47.349Z,15.60
2022-11-05T20:45:13.904Z,12.53
2022-11-05T20:47:40.405Z,9.73
2022-11-05T20:50:07.863Z,13.05
2022-11-05T20:52:34.415Z,12.07
2022-11-05T20:55:02.238Z,9.95
2022-11-05T20:57:28.904Z,12.70
2022-11-05T20:59:55.490Z,13.95
2022-11-05T21:02:22.086Z,12.20
2022-11-05T21:04:48.740Z,12.02
2022-11-05T21:07:15.210Z,13.35
2022-11-05T21:09:41.721Z,11.93
2022-11-05T21:12:10.779Z,9.93
2022-11-05T21:14:42.336Z,11.30
2022-11-05T21:17:11.575Z,11.38
2022-11-05T21:19:38.514Z,9.85
2022-11-05T21:22:06.197Z,10.30
2022-11-05T21:24:33.736Z,10.68
2022-11-05T21:27:00.331Z,10.25
2022-11-05T21:29:27.109Z,20.85
2022-11-05T21:31:53.860Z,10.88
2022-11-05T21:34:20.440Z,8.53
2022-11-05T21:36:47.338Z,8.95
2022-11-05T21:39:14.082Z,12.20
2022-11-05T21:41:40.784Z,10.45
2022-11-05T21:44:07.331Z,8.48
2022-11-05T21:46:34.115Z,9.57
2022-11-05T21:49:00.685Z,12.68
2022-11-05T21:51:45.486Z,11.07
2022-11-05T21:54:30.531Z,7.88
2022-11-05T21:57:16.335Z,8.45
2022-11-05T21:59:48.720Z,8.77
2022-11-05T22:02:21.143Z,10.23
2022-11-05T22:04:50.883Z,17.73
2022-11-05T22:07:20.873Z,9.57
2022-11-05T22:09:47.420Z,12.57
2022-11-05T22:12:14.630Z,12.63
2022-11-05T22:14:41.610Z,12.75
2022-11-05T22:17:09.454Z,12.80
2022-11-05T22:19:36.487Z,12.02
2022-11-05T22:22:04.935Z,10.90
2022-11-05T22:24:32.039Z,17.50
2022-11-05T22:26:59.952Z,17.17
2022-11-05T22:29:27.274Z,11.35
2022-11-05T22:31:54.545Z,11.70
2022-11-05T22:34:21.359Z,19.67
2022-11-05T22:36:47.877Z,10.60
2022-11-05T22:39:14.929Z,16.20
2022-11-05T22:41:41.538Z,9.60
2022-11-05T22:44:10.327Z,11.98
2022-11-05T22:46:38.400Z,13.05
2022-11-05T22:49:06.388Z,15.47
2022-11-05T22:51:35.214Z,9.57
2022-11-05T22:54:02.666Z,17.17
2022-11-05T22:56:32.080Z,9.63
2022-11-05T22:58:59.207Z,14.18
2022-11-05T23:01:26.478Z,11.43
2022-11-05T23:03:55.165Z,12.10
2022-11-05T23:06:45.868Z,9.77
2022-11-05T23:09:43.525Z,11.63
2022-11-05T23:12:28.384Z,8.13
2022-11-05T23:14:57.313Z,11.70
2022-11-05T23:17:43.565Z,14.23
2022-11-05T23:20:35.314Z,8.80
2022-11-05T23:23:20.679Z,9.05
2022-11-05T23:25:47.460Z,12.65
2022-11-05T23:28:15.162Z,11.33
2022-11-05T23:31:02.640Z,11.02
2022-11-05T23:33:33.171Z,9.93
2022-11-05T23:36:18.655Z,10.73
2022-11-05T23:38:45.281Z,9.73
2022-11-05T23:41:30.256Z,12.43
2022-11-05T23:44:15.479Z,13.63
2022-11-05T23:47:00.441Z,8.52
2022-11-05T23:49:28.032Z,11.43
2022-11-05T23:51:54.544Z,11.02
2022-11-05T23:54:21.900Z,16.73
2022-11-05T23:56:48.411Z,11.82
2022-11-05T23:59:14.885Z,10.23
